createdAt,value
2022-08-22T00:01:14.807Z,99076.41
2022-08-22T00:02:57.074Z,99057.23
2022-08-22T00:03:02.740Z,99056.16
2022-08-22T00:03:54.178Z,99076.36
2022-08-22T00:07:09.913Z,99073.63
2022-08-22T00:09:54.888Z,99071.49
2022-08-22T00:12:30.036Z,99065.83
2022-08-22T00:15:42.885Z,99070.48
2022-08-22T00:18:52.941Z,99066.46
2022-08-22T00:21:39.409Z,99065.55
2022-08-22T00:24:32.664Z,99066.55
2022-08-22T00:27:14.401Z,99065.36
2022-08-22T00:29:52.853Z,99065.88
2022-08-22T00:32:35.079Z,99068.52
2022-08-22T00:35:36.128Z,99064.50
2022-08-22T00:38:28.469Z,99062.99
2022-08-22T00:41:04.562Z,99062.52
2022-08-22T00:43:31.574Z,99061.67
2022-08-22T00:46:13.155Z,99059.61
2022-08-22T00:48:48.494Z,99057.54
2022-08-22T00:51:40.146Z,99057.27
2022-08-22T00:54:34.845Z,99060.74
2022-08-22T00:57:39.850Z,99063.59
2022-08-22T01:00:14.309Z,99058.14
2022-08-22T01:03:18.503Z,99062.42
2022-08-22T01:06:11.657Z,99068.71
2022-08-22T01:09:14.435Z,99068.92
2022-08-22T01:12:18.251Z,99073.30
2022-08-22T01:14:55.691Z,99070.95
2022-08-22T01:17:48.790Z,99063.47
2022-08-22T01:21:12.985Z,99068.53
2022-08-22T01:23:58.557Z,99069.30
2022-08-22T01:26:53.012Z,99071.66
2022-08-22T01:29:57.409Z,99075.62
2022-08-22T01:32:30.774Z,99076.84
2022-08-22T01:35:13.112Z,99077.95
2022-08-22T01:38:04.698Z,99070.86
2022-08-22T01:41:04.109Z,99071.38
2022-08-22T01:44:01.256Z,99073.41
2022-08-22T01:46:58.989Z,99070.59
2022-08-22T01:49:35.122Z,99075.19
2022-08-22T01:52:36.220Z,99076.57
2022-08-22T01:55:42.986Z,99079.30
2022-08-22T01:58:32.830Z,99083.37
2022-08-22T02:01:12.068Z,99085.36
2022-08-22T02:03:57.388Z,99091.20
2022-08-22T02:06:44.684Z,99094.44
2022-08-22T02:09:23.292Z,99091.40
2022-08-22T02:11:59.534Z,99090.63
2022-08-22T02:14:36.307Z,99084.13
2022-08-22T02:17:35.310Z,99084.32
2022-08-22T02:20:32.019Z,99080.33
2022-08-22T02:23:26.434Z,99082.73
2022-08-22T02:26:02.709Z,99083.92
2022-08-22T02:28:56.993Z,99080.21
2022-08-22T02:31:56.492Z,99077.61
2022-08-22T02:34:26.581Z,99079.26
2022-08-22T02:37:06.408Z,99077.00
2022-08-22T02:40:08.111Z,99082.85
2022-08-22T02:42:57.150Z,99083.87
2022-08-22T02:45:42.233Z,99086.06
2022-08-22T02:48:44.076Z,99087.00
2022-08-22T02:51:39.598Z,99082.00
2022-08-22T02:55:03.763Z,99082.27
2022-08-22T02:57:45.474Z,99087.02
2022-08-22T03:00:47.102Z,99088.21
2022-08-22T03:03:21.112Z,99093.51
2022-08-22T03:06:05.086Z,99095.24
2022-08-22T03:09:00.396Z,99096.09
2022-08-22T03:11:38.707Z,99093.73
2022-08-22T03:14:35.849Z,99096.41
2022-08-22T03:17:10.372Z,99103.04
2022-08-22T03:20:11.200Z,99097.39
2022-08-22T03:22:48.066Z,99097.21
2022-08-22T03:25:37.449Z,99098.52
2022-08-22T03:28:52.736Z,99098.02
2022-08-22T03:31:30.370Z,99094.99
2022-08-22T03:34:21.895Z,99097.34
2022-08-22T03:37:21.351Z,99094.22
2022-08-22T03:40:00.839Z,99097.15
2022-08-22T03:43:05.334Z,99102.22
2022-08-22T03:46:20.469Z,99099.22
2022-08-22T03:49:05.629Z,99092.46
2022-08-22T03:52:01.559Z,99098.28
2022-08-22T03:55:29.973Z,99104.78
2022-08-22T03:58:19.183Z,99111.90
2022-08-22T04:01:16.962Z,99115.27
2022-08-22T04:04:15.833Z,99114.95
2022-08-22T04:06:56.332Z,99119.46
2022-08-22T04:10:19.751Z,99133.64
2022-08-22T04:13:10.759Z,99133.91
2022-08-22T04:15:47.102Z,99134.52
2022-08-22T04:18:59.743Z,99137.13
2022-08-22T04:22:06.287Z,99133.75
2022-08-22T04:24:37.157Z,99136.70
2022-08-22T04:27:07.195Z,99136.90
2022-08-22T04:29:45.953Z,99135.08
2022-08-22T04:32:30.249Z,99137.48
2022-08-22T04:35:32.391Z,99134.27
2022-08-22T04:38:20.149Z,99131.96
2022-08-22T04:40:55.368Z,99135.19
2022-08-22T04:43:37.735Z,99135.05
2022-08-22T04:46:19.465Z,99134.56
2022-08-22T04:49:35.706Z,99137.40
2022-08-22T04:52:35.444Z,99132.42
2022-08-22T04:55:24.102Z,99136.14
2022-08-22T04:58:33.121Z,99128.15
2022-08-22T05:01:06.282Z,99138.59
2022-08-22T05:03:41.929Z,99139.54
2022-08-22T05:06:15.709Z,99141.23
2022-08-22T05:08:46.247Z,99137.80
2022-08-22T05:11:23.476Z,99142.42
2022-08-22T05:14:00.119Z,99145.17
2022-08-22T05:16:36.982Z,99140.68
2022-08-22T05:19:16.416Z,99141.69
2022-08-22T05:21:47.671Z,99140.91
2022-08-22T05:24:28.167Z,99145.43
2022-08-22T05:27:00.269Z,99149.01
2022-08-22T05:29:32.305Z,99152.65
2022-08-22T05:32:05.381Z,99160.11
2022-08-22T05:34:43.941Z,99158.14
2022-08-22T05:37:21.671Z,99161.06
2022-08-22T05:39:55.767Z,99164.10
2022-08-22T05:42:33.664Z,99165.57
2022-08-22T05:45:05.034Z,99165.02
2022-08-22T05:47:36.910Z,99165.73
2022-08-22T05:50:10.597Z,99167.46
2022-08-22T05:53:36.400Z,99158.45
2022-08-22T05:56:17.309Z,99167.05
2022-08-22T05:59:02.381Z,99166.20
2022-08-22T06:01:45.845Z,99166.02
2022-08-22T06:04:42.509Z,99167.52
2022-08-22T06:07:33.725Z,99170.05
2022-08-22T06:10:22.268Z,99166.81
2022-08-22T06:12:52.666Z,99164.89
2022-08-22T06:15:43.960Z,99165.15
2022-08-22T06:18:26.986Z,99171.04
2022-08-22T06:20:55.843Z,99174.54
2022-08-22T06:23:37.196Z,99175.20
2022-08-22T06:26:05.329Z,99176.05
2022-08-22T06:28:55.126Z,99181.54
2022-08-22T06:31:32.761Z,99182.98
2022-08-22T06:34:01.581Z,99183.54
2022-08-22T06:36:32.092Z,99184.92
2022-08-22T06:39:33.261Z,99187.78
2022-08-22T06:42:28.539Z,99189.27
2022-08-22T06:45:18.965Z,99192.45
2022-08-22T06:48:00.863Z,99188.69
2022-08-22T06:50:42.181Z,99192.91
2022-08-22T06:53:16.795Z,99192.20
2022-08-22T06:55:56.821Z,99195.23
2022-08-22T06:58:39.526Z,99192.48
2022-08-22T07:01:14.082Z,99197.67
2022-08-22T07:03:46.777Z,99194.84
2022-08-22T07:06:28.033Z,99196.50
2022-08-22T07:08:56.406Z,99192.60
2022-08-22T07:11:35.933Z,99193.48
2022-08-22T07:14:14.091Z,99189.23
2022-08-22T07:17:00.721Z,99191.00
2022-08-22T07:19:36.744Z,99196.27
2022-08-22T07:22:24.681Z,99198.18
2022-08-22T07:25:14.613Z,99196.98
2022-08-22T07:28:15.893Z,99197.06
2022-08-22T07:30:57.781Z,99196.48
2022-08-22T07:33:51.160Z,99196.30
2022-08-22T07:36:45.548Z,99194.67
2022-08-22T07:39:57.576Z,99190.85
2022-08-22T07:42:48.198Z,99193.48
2022-08-22T07:45:34.953Z,99192.08
2022-08-22T07:48:26.228Z,99188.13
2022-08-22T07:51:13.189Z,99193.26
2022-08-22T07:53:44.801Z,99192.76
2022-08-22T07:56:26.557Z,99196.89
2022-08-22T07:59:12.958Z,99193.80
2022-08-22T08:01:54.025Z,99193.64
2022-08-22T08:04:27.611Z,99190.64
2022-08-22T08:07:00.224Z,99189.11
2022-08-22T08:09:37.766Z,99184.56
2022-08-22T08:12:06.855Z,99192.02
2022-08-22T08:14:37.056Z,99188.85
2022-08-22T08:17:31.870Z,99189.36
2022-08-22T08:20:05.541Z,99190.92
2022-08-22T08:22:33.735Z,99188.11
2022-08-22T08:25:02.187Z,99183.64
2022-08-22T08:27:53.059Z,99180.70
2022-08-22T08:30:54.982Z,99179.09
2022-08-22T08:33:27.709Z,99183.61
2022-08-22T08:36:33.553Z,99180.27
2022-08-22T08:39:35.554Z,99177.95
2022-08-22T08:43:02.033Z,99182.90
2022-08-22T08:45:36.750Z,99179.81
2022-08-22T08:48:50.053Z,99178.47
2022-08-22T08:51:57.104Z,99178.07
2022-08-22T08:54:42.869Z,99173.07
2022-08-22T08:57:25.938Z,99171.96
2022-08-22T09:00:14.225Z,99169.89
2022-08-22T09:03:21.147Z,99163.45
2022-08-22T09:06:16.077Z,99160.05
2022-08-22T09:09:17.054Z,99158.61
2022-08-22T09:12:32.265Z,99157.66
2022-08-22T09:15:18.522Z,99161.48
2022-08-22T09:18:00.698Z,99153.73
2022-08-22T09:21:12.684Z,99153.30
2022-08-22T09:24:42.878Z,99149.46
2022-08-22T09:27:30.689Z,99152.56
2022-08-22T09:30:04.616Z,99152.90
2022-08-22T09:32:58.822Z,99143.62
2022-08-22T09:35:54.614Z,99135.16
2022-08-22T09:39:05.859Z,99129.23
2022-08-22T09:41:59.106Z,99133.70
2022-08-22T09:44:56.145Z,99138.48
2022-08-22T09:47:39.292Z,99132.11
2022-08-22T09:50:17.964Z,99121.29
2022-08-22T09:52:57.253Z,99114.05
2022-08-22T09:55:42.868Z,99118.21
2022-08-22T09:59:01.907Z,99119.20
2022-08-22T10:01:42.295Z,99113.94
2022-08-22T10:04:42.090Z,99111.08
2022-08-22T10:07:51.494Z,99117.27
2022-08-22T10:10:41.335Z,99119.35
2022-08-22T10:13:26.185Z,99114.55
2022-08-22T10:16:14.120Z,99111.93
2022-08-22T10:18:52.872Z,99110.36
2022-08-22T10:21:47.614Z,99115.02
2022-08-22T10:24:43.664Z,99118.50
2022-08-22T10:27:21.108Z,99125.17
2022-08-22T10:30:32.836Z,99125.36
2022-08-22T10:33:02.316Z,99123.30
2022-08-22T10:35:47.105Z,99121.52
2022-08-22T10:38:54.718Z,99117.36
2022-08-22T10:41:55.296Z,99111.81
2022-08-22T10:45:36.466Z,99110.80
2022-08-22T10:48:34.049Z,99107.30
2022-08-22T10:51:30.596Z,99100.86
2022-08-22T10:54:14.634Z,99096.16
2022-08-22T10:57:07.456Z,99088.38
2022-08-22T11:00:11.627Z,99087.70
2022-08-22T11:03:10.567Z,99089.98
2022-08-22T11:05:50.038Z,99091.05
2022-08-22T11:08:46.508Z,99095.19
2022-08-22T11:11:26.393Z,99095.77
2022-08-22T11:14:40.437Z,99093.02
2022-08-22T11:17:54.674Z,99099.17
2022-08-22T11:20:42.256Z,99107.67
2022-08-22T11:23:37.673Z,99111.25
2022-08-22T11:26:14.601Z,99114.80
2022-08-22T11:29:13.662Z,99110.74
2022-08-22T11:31:51.276Z,99116.46
2022-08-22T11:34:33.054Z,99114.85
2022-08-22T11:37:43.985Z,99105.59
2022-08-22T11:40:36.334Z,99099.03
2022-08-22T11:43:33.733Z,99096.70
2022-08-22T11:46:19.953Z,99100.56
2022-08-22T11:49:05.214Z,99100.60
2022-08-22T11:52:14.189Z,99110.44
2022-08-22T11:55:18.389Z,99111.77
2022-08-22T11:57:54.716Z,99115.82
2022-08-22T12:00:33.888Z,99108.75
2022-08-22T12:03:19.070Z,99100.45
2022-08-22T12:06:11.861Z,99090.92
2022-08-22T12:08:50.836Z,99086.23
2022-08-22T12:11:44.237Z,99086.25
2022-08-22T12:14:52.853Z,99085.32
2022-08-22T12:18:28.277Z,99075.52
2022-08-22T12:20:58.662Z,99084.17
2022-08-22T12:23:50.371Z,99084.56
2022-08-22T12:27:18.299Z,99074.62
2022-08-22T12:30:37.385Z,99073.95
2022-08-22T12:33:21.922Z,99073.61
2022-08-22T12:35:59.864Z,99071.86
2022-08-22T12:38:39.767Z,99068.98
2022-08-22T12:41:54.618Z,99068.98
2022-08-22T12:44:37.122Z,99065.07
2022-08-22T12:47:32.167Z,99063.34
2022-08-22T12:50:35.110Z,99066.80
2022-08-22T12:53:20.445Z,99065.01
2022-08-22T12:56:21.322Z,99068.34
2022-08-22T12:59:38.471Z,99058.52
2022-08-22T13:02:25.348Z,99050.91
2022-08-22T13:05:13.277Z,99045.29
2022-08-22T13:08:02.352Z,99042.25
2022-08-22T13:10:44.904Z,99045.35
2022-08-22T13:13:31.339Z,99049.89
2022-08-22T13:16:11.763Z,99054.80
2022-08-22T13:18:47.520Z,99056.07
2022-08-22T13:21:35.991Z,99058.79
2022-08-22T13:24:17.013Z,99056.98
2022-08-22T13:27:02.578Z,99056.09
2022-08-22T13:30:27.060Z,99058.38
2022-08-22T13:33:09.071Z,99060.32
2022-08-22T13:35:52.671Z,99063.09
2022-08-22T13:39:09.585Z,99059.34
2022-08-22T13:41:53.752Z,99054.52
2022-08-22T13:44:44.886Z,99057.70
2022-08-22T13:47:20.666Z,99058.77
2022-08-22T13:50:02.323Z,99066.11
2022-08-22T13:52:55.460Z,99077.04
2022-08-22T13:55:33.724Z,99076.95
2022-08-22T13:58:22.708Z,99082.70
2022-08-22T14:01:28.587Z,99086.80
2022-08-22T14:04:36.062Z,99095.98
2022-08-22T14:07:03.560Z,99100.03
2022-08-22T14:10:02.578Z,99100.27
2022-08-22T14:13:21.517Z,99103.33
2022-08-22T14:15:48.857Z,99098.21
2022-08-22T14:18:45.468Z,99093.25
2022-08-22T14:21:40.796Z,99092.40
2022-08-22T14:24:30.294Z,99094.33
2022-08-22T14:27:05.588Z,99090.76
2022-08-22T14:29:52.219Z,99088.29
2022-08-22T14:32:26.727Z,99090.23
2022-08-22T14:35:34.957Z,99090.07
2022-08-22T14:38:29.955Z,99088.31
2022-08-22T14:41:06.524Z,99093.09
2022-08-22T14:43:50.117Z,99097.66
2022-08-22T14:46:48.879Z,99098.77
2022-08-22T14:49:20.561Z,99098.89
2022-08-22T14:52:07.379Z,99095.51
2022-08-22T14:54:37.528Z,99086.14
2022-08-22T14:57:20.054Z,99086.64
2022-08-22T14:59:51.949Z,99086.08
2022-08-22T15:02:32.701Z,99087.61
2022-08-22T15:05:18.006Z,99085.41
2022-08-22T15:07:55.725Z,99087.42
2022-08-22T15:10:34.344Z,99087.04
2022-08-22T15:13:07.882Z,99087.73
2022-08-22T15:15:54.353Z,99094.81
2022-08-22T15:18:27.156Z,99096.23
2022-08-22T15:21:32.886Z,99098.95
2022-08-22T15:24:13.885Z,99100.17
2022-08-22T15:26:55.522Z,99096.84
2022-08-22T15:29:27.792Z,99098.08
2022-08-22T15:32:01.258Z,99096.77
2022-08-22T15:35:06.581Z,99090.08
2022-08-22T15:37:53.069Z,99094.58
2022-08-22T15:40:35.032Z,99090.96
2022-08-22T15:43:35.237Z,99091.09
2022-08-22T15:46:29.313Z,99088.20
2022-08-22T15:49:18.988Z,99088.43
2022-08-22T15:52:01.432Z,99087.10
2022-08-22T15:54:53.940Z,99088.01
2022-08-22T15:57:41.463Z,99084.55
2022-08-22T16:00:30.739Z,99088.86
2022-08-22T16:03:12.821Z,99091.50
2022-08-22T16:05:57.594Z,99090.50
2022-08-22T16:08:36.605Z,99094.39
2022-08-22T16:11:03.624Z,99097.25
2022-08-22T16:13:30.771Z,99098.66
2022-08-22T16:16:24.289Z,99104.89
2022-08-22T16:18:51.746Z,99109.38
2022-08-22T16:21:25.138Z,99118.82
2022-08-22T16:23:56.449Z,99127.60
2022-08-22T16:26:29.634Z,99124.34
2022-08-22T16:29:06.252Z,99124.56
2022-08-22T16:31:48.328Z,99121.44
2022-08-22T16:34:15.760Z,99120.05
2022-08-22T16:37:21.663Z,99123.65
2022-08-22T16:39:58.222Z,99120.77
2022-08-22T16:42:35.446Z,99119.02
2022-08-22T16:45:05.336Z,99114.89
2022-08-22T16:47:33.088Z,99119.64
2022-08-22T16:50:06.492Z,99120.98
2022-08-22T16:52:36.709Z,99122.05
2022-08-22T16:55:45.024Z,99122.27
2022-08-22T16:58:57.778Z,99121.77
2022-08-22T17:02:00.546Z,99120.48
2022-08-22T17:04:44.065Z,99125.20
2022-08-22T17:07:32.514Z,99123.77
2022-08-22T17:10:02.364Z,99126.75
2022-08-22T17:12:37.598Z,99136.66
2022-08-22T17:15:47.388Z,99145.31
2022-08-22T17:18:48.602Z,99146.31
2022-08-22T17:21:17.591Z,99154.02
2022-08-22T17:24:31.971Z,99154.60
2022-08-22T17:27:26.094Z,99161.77
2022-08-22T17:29:59.780Z,99164.98
2022-08-22T17:32:33.195Z,99166.52
2022-08-22T17:35:15.603Z,99169.23
2022-08-22T17:38:01.494Z,99169.97
2022-08-22T17:41:08.194Z,99166.49
2022-08-22T17:44:03.373Z,99168.52
2022-08-22T17:46:45.097Z,99163.16
2022-08-22T17:49:46.108Z,99161.26
2022-08-22T17:52:33.629Z,99164.13
2022-08-22T17:55:15.512Z,99162.50
2022-08-22T17:58:00.761Z,99168.28
2022-08-22T18:00:36.121Z,99172.61
2022-08-22T18:03:23.361Z,99173.20
2022-08-22T18:06:17.655Z,99173.73
2022-08-22T18:12:20.492Z,99178.94
2022-08-22T18:14:59.304Z,99182.40
2022-08-22T18:17:47.007Z,99178.05
2022-08-22T18:20:39.866Z,99183.96
2022-08-22T18:23:36.096Z,99195.46
2022-08-22T18:26:48.602Z,99209.98
2022-08-22T18:29:25.383Z,99209.05
2022-08-22T18:32:07.179Z,99204.23
2022-08-22T18:35:13.364Z,99200.15
2022-08-22T18:38:20.257Z,99199.23
2022-08-22T18:41:06.548Z,99214.09
2022-08-22T18:43:47.826Z,99242.20
2022-08-22T18:46:46.593Z,99258.98
2022-08-22T18:49:19.623Z,99242.76
2022-08-22T18:52:07.918Z,99225.36
2022-08-22T18:54:35.074Z,99209.39
2022-08-22T18:57:31.715Z,99198.00
2022-08-22T19:00:25.194Z,99201.80
2022-08-22T19:03:12.506Z,99222.11
2022-08-22T19:06:06.988Z,99276.67
2022-08-22T19:09:31.795Z,99302.85
2022-08-22T19:12:16.830Z,99291.77
2022-08-22T19:15:10.538Z,99295.73
2022-08-22T19:18:10.765Z,99319.66
2022-08-22T19:20:58.832Z,99332.02
2022-08-22T19:23:32.294Z,99322.55
2022-08-22T19:26:23.105Z,99314.16
2022-08-22T19:29:16.879Z,99316.17
2022-08-22T19:32:02.871Z,99312.95
2022-08-22T19:34:41.022Z,99303.81
2022-08-22T19:37:31.054Z,99297.93
2022-08-22T19:40:09.139Z,99280.96
2022-08-22T19:42:43.577Z,99269.17
2022-08-22T19:45:28.478Z,99266.19
2022-08-22T19:48:14.196Z,99279.55
2022-08-22T19:50:43.585Z,99294.34
2022-08-22T19:53:46.114Z,99294.96
2022-08-22T19:56:37.567Z,99313.25
2022-08-22T19:59:50.510Z,99369.55
2022-08-22T20:02:37.264Z,99400.30
2022-08-22T20:05:33.497Z,99386.94
2022-08-22T20:08:09.969Z,99333.48
2022-08-22T20:10:42.776Z,99302.31
2022-08-22T20:13:34.170Z,99274.64
2022-08-22T20:16:18.450Z,99254.35
2022-08-22T20:19:06.567Z,99243.27
2022-08-22T20:22:00.365Z,99228.97
2022-08-22T20:24:46.835Z,99241.01
2022-08-22T20:27:28.420Z,99277.12
2022-08-22T20:30:25.477Z,99289.12
2022-08-22T20:33:08.694Z,99298.02
2022-08-22T20:35:42.918Z,99313.40
2022-08-22T20:38:17.261Z,99313.88
2022-08-22T20:41:20.628Z,99314.42
2022-08-22T20:44:04.297Z,99304.13
2022-08-22T20:46:53.589Z,99286.02
2022-08-22T20:49:42.233Z,99271.23
2022-08-22T20:52:27.365Z,99252.54
2022-08-22T20:55:31.578Z,99240.91
2022-08-22T20:58:04.296Z,99232.55
2022-08-22T21:00:40.467Z,99215.20
2022-08-22T21:03:26.976Z,99216.52
2022-08-22T21:05:54.283Z,99225.46
2022-08-22T21:08:26.383Z,99242.13
2022-08-22T21:11:22.263Z,99275.34
2022-08-22T21:13:50.647Z,99292.02
2022-08-22T21:16:31.759Z,99287.20
2022-08-22T21:19:03.658Z,99286.18
2022-08-22T21:21:34.432Z,99295.65
2022-08-22T21:24:09.043Z,99279.30
2022-08-22T21:26:46.245Z,99257.23
2022-08-22T21:29:13.230Z,99246.53
2022-08-22T21:32:04.380Z,99241.00
2022-08-22T21:34:43.647Z,99225.17
2022-08-22T21:37:29.007Z,99224.65
2022-08-22T21:40:22.163Z,99241.05
2022-08-22T21:43:10.501Z,99256.85
2022-08-22T21:45:37.654Z,99250.97
2022-08-22T21:48:38.648Z,99242.70
2022-08-22T21:51:21.512Z,99246.62
2022-08-22T21:53:49.276Z,99247.71
2022-08-22T21:56:30.864Z,99248.89
2022-08-22T21:59:51.650Z,99254.02
2022-08-22T22:02:37.527Z,99254.67
2022-08-22T22:05:13.004Z,99246.52
2022-08-22T22:07:43.635Z,99242.21
2022-08-22T22:10:15.826Z,99247.45
2022-08-22T22:12:45.745Z,99251.81
2022-08-22T22:15:18.457Z,99247.64
2022-08-22T22:17:45.988Z,99248.95
2022-08-22T22:20:15.892Z,99246.21
2022-08-22T22:22:45.950Z,99245.33
2022-08-22T22:25:40.288Z,99243.91
2022-08-22T22:28:23.297Z,99243.19
2022-08-22T22:30:52.873Z,99250.20
2022-08-22T22:33:24.660Z,99258.01
2022-08-22T22:35:53.989Z,99264.63
2022-08-22T22:38:24.265Z,99266.90
2022-08-22T22:40:52.860Z,99266.52
2022-08-22T22:43:20.229Z,99267.70
2022-08-22T22:45:47.664Z,99270.30
2022-08-22T22:48:24.329Z,99275.27
2022-08-22T22:50:53.646Z,99274.79
2022-08-22T22:53:33.768Z,99270.05
2022-08-22T22:56:10.778Z,99272.27
2022-08-22T22:58:40.041Z,99273.41
2022-08-22T23:01:15.976Z,99279.17
2022-08-22T23:03:44.868Z,99284.67
2022-08-22T23:06:16.073Z,99282.80
2022-08-22T23:08:43.453Z,99276.56
2022-08-22T23:11:15.443Z,99276.29
2022-08-22T23:13:43.219Z,99276.33
2022-08-22T23:16:25.639Z,99275.21
2022-08-22T23:18:53.481Z,99282.96
2022-08-22T23:21:26.524Z,99284.41
2022-08-22T23:23:56.381Z,99287.74
2022-08-22T23:26:24.083Z,99288.11
2022-08-22T23:28:51.753Z,99286.17
2022-08-22T23:31:47.769Z,99289.02
2022-08-22T23:34:18.718Z,99292.90
2022-08-22T23:36:47.350Z,99297.09
2022-08-22T23:39:16.499Z,99296.50
2022-08-22T23:41:45.282Z,99293.79
2022-08-22T23:44:16.836Z,99292.81
2022-08-22T23:46:44.708Z,99290.94
2022-08-22T23:49:13.596Z,99292.16
2022-08-22T23:51:42.116Z,99291.36
2022-08-22T23:54:09.527Z,99289.69
2022-08-22T23:56:56.139Z,99287.48
2022-08-22T23:59:30.643Z,99296.71
